Pagina principale
METAR-TAF:

METAR-TAF

Aeroporti :

Aeroporto di Tbilisi

Tbilisi, Georgia

latitudine: 41-40-09N, longitudine: 044-57-17E, altezza: 495 m

Osservazione

Il bollettino è stato emesso 19 minuti fa, alle 22:00 UTC
Vento 2 kt da nord
Temperature 10°C
Umidità 93%
Pressione 1022 hPa
Visibilità 10 km o più
nessuna nube inferiore a 1500 m e nessun cumulonembo

METAR: UGTB 292200Z 01002KT CAVOK 10/09 Q1022 NOSIG

Ora: 02:19 (22:19 UTC)

Previsione

Il bollettino è stato emesso 5 ore e 19 minuti fa, alle 17:00 UTC
Previsione valida dal 29 alle 18 UTC al 30 alle 18 UTC
Vento 2 kt da direzioni variabili
Visibilità 10 km o più
nessuna nube inferiore a 1500 m e nessun cumulonembo

TAF: UGTB 291700Z 2918/3018 VRB02KT CAVOK TX22/3012Z TN10/3003Z

Osservazioni e previsioni meteorologiche di più di 4000 aeroporti (messaggi METAR e TAF).

Le stazioni disponibili sono rappresentate dai dischi gialli e rossi sulla carta.

Puntare il mouse per vedere il nome della stazione.

Clicca sopra per visualizzare le osservazioni e previsioni meteorologiche.

Per cambiare la mappa : fare clic sui pulsanti verdi con una croce nera per ingrandire, il pulsante verde con un trattino per diminuire, o sulla freccia verde per le mappe adiacenti.


METAR-TAF: